sensor_id;sensor_type;location;lat;lon;timestamp;temperature;humidity
12967;DHT22;6548;49.996;8.238;2023-03-23T00:01:20;14.10;99.90
12967;DHT22;6548;49.996;8.238;2023-03-23T00:03:50;14.10;99.90
12967;DHT22;6548;49.996;8.238;2023-03-23T00:06:17;14.10;99.90
12967;DHT22;6548;49.996;8.238;2023-03-23T00:08:45;14.10;99.90
12967;DHT22;6548;49.996;8.238;2023-03-23T00:11:12;14.20;99.90
12967;DHT22;6548;49.996;8.238;2023-03-23T00:13:41;14.20;99.90
12967;DHT22;6548;49.996;8.238;2023-03-23T00:16:07;14.20;99.90
12967;DHT22;6548;49.996;8.238;2023-03-23T00:18:46;14.20;99.90
12967;DHT22;6548;49.996;8.238;2023-03-23T00:21:12;14.20;99.90
12967;DHT22;6548;49.996;8.238;2023-03-23T00:23:39;14.20;99.90
12967;DHT22;6548;49.996;8.238;2023-03-23T00:26:04;14.20;99.90
12967;DHT22;6548;49.996;8.238;2023-03-23T00:28:30;14.20;99.90
12967;DHT22;6548;49.996;8.238;2023-03-23T00:31:04;14.10;99.90
12967;DHT22;6548;49.996;8.238;2023-03-23T00:33:34;14.10;99.90
12967;DHT22;6548;49.996;8.238;2023-03-23T00:36:04;14.10;99.90
12967;DHT22;6548;49.996;8.238;2023-03-23T00:38:30;14.10;99.90
12967;DHT22;6548;49.996;8.238;2023-03-23T00:40:58;14.20;99.90
12967;DHT22;6548;49.996;8.238;2023-03-23T00:43:28;14.20;99.90
12967;DHT22;6548;49.996;8.238;2023-03-23T00:45:55;14.20;99.90
12967;DHT22;6548;49.996;8.238;2023-03-23T00:48:23;14.20;99.90
12967;DHT22;6548;49.996;8.238;2023-03-23T00:50:50;14.20;99.90
12967;DHT22;6548;49.996;8.238;2023-03-23T00:53:17;14.20;99.90
12967;DHT22;6548;49.996;8.238;2023-03-23T00:55:44;14.20;99.90
12967;DHT22;6548;49.996;8.238;2023-03-23T00:58:11;15.00;99.90
12967;DHT22;6548;49.996;8.238;2023-03-23T01:00:37;14.20;99.90
12967;DHT22;6548;49.996;8.238;2023-03-23T01:03:03;15.20;99.90
12967;DHT22;6548;49.996;8.238;2023-03-23T01:05:37;14.30;99.90
12967;DHT22;6548;49.996;8.238;2023-03-23T01:08:13;14.20;99.90
12967;DHT22;6548;49.996;8.238;2023-03-23T01:10:42;14.50;99.90
12967;DHT22;6548;49.996;8.238;2023-03-23T01:13:07;15.40;99.90
12967;DHT22;6548;49.996;8.238;2023-03-23T01:15:33;14.00;99.90
12967;DHT22;6548;49.996;8.238;2023-03-23T01:18:00;15.30;99.90
12967;DHT22;6548;49.996;8.238;2023-03-23T01:20:26;14.00;99.90
12967;DHT22;6548;49.996;8.238;2023-03-23T01:22:54;14.20;99.90
12967;DHT22;6548;49.996;8.238;2023-03-23T01:25:27;14.20;99.90
12967;DHT22;6548;49.996;8.238;2023-03-23T01:27:53;14.20;99.90
12967;DHT22;6548;49.996;8.238;2023-03-23T01:30:19;14.30;99.90
12967;DHT22;6548;49.996;8.238;2023-03-23T01:32:44;14.20;99.90
12967;DHT22;6548;49.996;8.238;2023-03-23T01:35:12;14.20;99.90
12967;DHT22;6548;49.996;8.238;2023-03-23T01:37:38;14.20;99.90
12967;DHT22;6548;49.996;8.238;2023-03-23T01:40:04;14.10;99.90
12967;DHT22;6548;49.996;8.238;2023-03-23T01:42:33;14.10;99.90
12967;DHT22;6548;49.996;8.238;2023-03-23T01:47:56;14.10;99.90
12967;DHT22;6548;49.996;8.238;2023-03-23T01:50:23;14.10;99.90
12967;DHT22;6548;49.996;8.238;2023-03-23T01:52:52;14.10;99.90
12967;DHT22;6548;49.996;8.238;2023-03-23T01:55:19;14.10;99.90
12967;DHT22;6548;49.996;8.238;2023-03-23T01:57:45;14.10;99.90
12967;DHT22;6548;49.996;8.238;2023-03-23T02:00:11;14.10;99.90
12967;DHT22;6548;49.996;8.238;2023-03-23T02:02:45;14.00;99.90
12967;DHT22;6548;49.996;8.238;2023-03-23T02:07:50;14.20;99.90
12967;DHT22;6548;49.996;8.238;2023-03-23T02:10:16;14.10;99.90
12967;DHT22;6548;49.996;8.238;2023-03-23T02:12:41;14.10;99.90
12967;DHT22;6548;49.996;8.238;2023-03-23T02:15:07;14.10;99.90
12967;DHT22;6548;49.996;8.238;2023-03-23T02:20:18;14.10;99.90
12967;DHT22;6548;49.996;8.238;2023-03-23T02:29:06;14.10;99.90
12967;DHT22;6548;49.996;8.238;2023-03-23T02:32:12;14.00;99.90
12967;DHT22;6548;49.996;8.238;2023-03-23T02:34:43;13.70;99.90
12967;DHT22;6548;49.996;8.238;2023-03-23T02:37:34;13.40;99.90
12967;DHT22;6548;49.996;8.238;2023-03-23T02:40:12;13.30;99.90
12967;DHT22;6548;49.996;8.238;2023-03-23T02:42:43;13.10;99.90
12967;DHT22;6548;49.996;8.238;2023-03-23T02:45:11;13.10;99.90
12967;DHT22;6548;49.996;8.238;2023-03-23T02:47:38;13.00;99.90
12967;DHT22;6548;49.996;8.238;2023-03-23T02:50:06;13.50;99.90
12967;DHT22;6548;49.996;8.238;2023-03-23T02:52:34;13.20;99.90
12967;DHT22;6548;49.996;8.238;2023-03-23T02:55:02;13.30;99.90
12967;DHT22;6548;49.996;8.238;2023-03-23T02:57:30;13.30;99.90
12967;DHT22;6548;49.996;8.238;2023-03-23T02:59:56;13.30;99.90
12967;DHT22;6548;49.996;8.238;2023-03-23T03:02:36;13.30;99.90
12967;DHT22;6548;49.996;8.238;2023-03-23T03:08:00;13.30;99.90
12967;DHT22;6548;49.996;8.238;2023-03-23T03:10:34;13.30;99.90
12967;DHT22;6548;49.996;8.238;2023-03-23T03:17:06;13.20;99.90
12967;DHT22;6548;49.996;8.238;2023-03-23T03:19:22;13.10;99.90
12967;DHT22;6548;49.996;8.238;2023-03-23T03:21:51;13.00;99.90
12967;DHT22;6548;49.996;8.238;2023-03-23T03:24:21;12.90;99.90
12967;DHT22;6548;49.996;8.238;2023-03-23T03:26:49;12.90;99.90
12967;DHT22;6548;49.996;8.238;2023-03-23T03:29:19;12.70;99.90
12967;DHT22;6548;49.996;8.238;2023-03-23T03:31:47;12.70;99.90
12967;DHT22;6548;49.996;8.238;2023-03-23T03:34:14;12.70;99.90
12967;DHT22;6548;49.996;8.238;2023-03-23T03:36:44;12.70;99.90
12967;DHT22;6548;49.996;8.238;2023-03-23T03:39:11;12.70;99.90
12967;DHT22;6548;49.996;8.238;2023-03-23T03:41:38;12.90;99.90
12967;DHT22;6548;49.996;8.238;2023-03-23T03:44:05;12.90;99.90
12967;DHT22;6548;49.996;8.238;2023-03-23T03:46:35;12.90;99.90
12967;DHT22;6548;49.996;8.238;2023-03-23T03:49:02;12.80;99.90
12967;DHT22;6548;49.996;8.238;2023-03-23T03:51:29;12.90;99.90
12967;DHT22;6548;49.996;8.238;2023-03-23T03:53:55;12.90;99.90
12967;DHT22;6548;49.996;8.238;2023-03-23T03:56:32;12.90;99.90
12967;DHT22;6548;49.996;8.238;2023-03-23T03:59:02;12.90;99.90
12967;DHT22;6548;49.996;8.238;2023-03-23T04:01:27;13.00;99.90
12967;DHT22;6548;49.996;8.238;2023-03-23T04:03:54;12.90;99.90
12967;DHT22;6548;49.996;8.238;2023-03-23T04:06:20;12.90;99.90
12967;DHT22;6548;49.996;8.238;2023-03-23T04:08:46;13.10;99.90
12967;DHT22;6548;49.996;8.238;2023-03-23T04:11:13;13.50;99.90
12967;DHT22;6548;49.996;8.238;2023-03-23T04:13:39;13.70;99.90
12967;DHT22;6548;49.996;8.238;2023-03-23T04:16:05;13.30;99.90
12967;DHT22;6548;49.996;8.238;2023-03-23T04:18:32;13.40;99.90
12967;DHT22;6548;49.996;8.238;2023-03-23T04:20:58;13.40;99.90
12967;DHT22;6548;49.996;8.238;2023-03-23T04:23:26;13.50;99.90
12967;DHT22;6548;49.996;8.238;2023-03-23T04:25:52;13.50;99.90
12967;DHT22;6548;49.996;8.238;2023-03-23T04:28:23;13.50;99.90
12967;DHT22;6548;49.996;8.238;2023-03-23T04:30:51;13.40;99.90
12967;DHT22;6548;49.996;8.238;2023-03-23T04:33:21;13.50;99.90
12967;DHT22;6548;49.996;8.238;2023-03-23T04:35:47;13.50;99.90
12967;DHT22;6548;49.996;8.238;2023-03-23T04:38:15;13.50;99.90
12967;DHT22;6548;49.996;8.238;2023-03-23T04:40:43;13.70;99.90
12967;DHT22;6548;49.996;8.238;2023-03-23T04:43:09;14.20;99.90
12967;DHT22;6548;49.996;8.238;2023-03-23T04:45:38;13.50;99.90
12967;DHT22;6548;49.996;8.238;2023-03-23T04:48:07;13.70;99.90
12967;DHT22;6548;49.996;8.238;2023-03-23T04:50:33;13.40;99.90
12967;DHT22;6548;49.996;8.238;2023-03-23T04:53:02;13.40;99.90
12967;DHT22;6548;49.996;8.238;2023-03-23T04:55:32;13.30;99.90
12967;DHT22;6548;49.996;8.238;2023-03-23T04:58:02;13.20;99.90
12967;DHT22;6548;49.996;8.238;2023-03-23T05:00:29;13.20;99.90
12967;DHT22;6548;49.996;8.238;2023-03-23T05:02:55;13.20;99.90
12967;DHT22;6548;49.996;8.238;2023-03-23T05:05:21;13.10;99.90
12967;DHT22;6548;49.996;8.238;2023-03-23T05:07:48;13.10;99.90
12967;DHT22;6548;49.996;8.238;2023-03-23T05:10:15;13.10;99.90
12967;DHT22;6548;49.996;8.238;2023-03-23T05:12:41;14.20;99.90
12967;DHT22;6548;49.996;8.238;2023-03-23T05:15:09;14.40;99.90
12967;DHT22;6548;49.996;8.238;2023-03-23T05:17:35;13.00;99.90
12967;DHT22;6548;49.996;8.238;2023-03-23T05:20:02;13.00;99.90
12967;DHT22;6548;49.996;8.238;2023-03-23T05:22:29;13.00;99.90
12967;DHT22;6548;49.996;8.238;2023-03-23T05:24:58;13.00;99.90
12967;DHT22;6548;49.996;8.238;2023-03-23T05:27:24;12.90;99.90
12967;DHT22;6548;49.996;8.238;2023-03-23T05:29:58;12.90;99.90
12967;DHT22;6548;49.996;8.238;2023-03-23T05:32:27;12.80;99.90
12967;DHT22;6548;49.996;8.238;2023-03-23T05:35:00;12.80;99.90
12967;DHT22;6548;49.996;8.238;2023-03-23T05:37:27;12.80;99.90
12967;DHT22;6548;49.996;8.238;2023-03-23T05:39:58;12.80;99.90
12967;DHT22;6548;49.996;8.238;2023-03-23T05:42:27;12.70;99.90
12967;DHT22;6548;49.996;8.238;2023-03-23T05:44:52;12.70;99.90
12967;DHT22;6548;49.996;8.238;2023-03-23T05:47:18;12.70;99.90
12967;DHT22;6548;49.996;8.238;2023-03-23T05:49:44;12.70;99.90
12967;DHT22;6548;49.996;8.238;2023-03-23T05:52:09;12.70;99.90
12967;DHT22;6548;49.996;8.238;2023-03-23T05:54:35;12.70;99.90
12967;DHT22;6548;49.996;8.238;2023-03-23T05:57:02;12.70;99.90
12967;DHT22;6548;49.996;8.238;2023-03-23T05:59:28;12.60;99.90
12967;DHT22;6548;49.996;8.238;2023-03-23T06:01:53;12.90;99.90
12967;DHT22;6548;49.996;8.238;2023-03-23T06:04:19;12.60;99.90
12967;DHT22;6548;49.996;8.238;2023-03-23T06:06:46;12.60;99.90
12967;DHT22;6548;49.996;8.238;2023-03-23T06:09:11;12.60;99.90
12967;DHT22;6548;49.996;8.238;2023-03-23T06:11:37;12.70;99.90
12967;DHT22;6548;49.996;8.238;2023-03-23T06:14:03;12.70;99.90
12967;DHT22;6548;49.996;8.238;2023-03-23T06:16:29;12.70;99.90
12967;DHT22;6548;49.996;8.238;2023-03-23T06:18:54;12.60;99.90
12967;DHT22;6548;49.996;8.238;2023-03-23T06:21:22;12.60;99.90
12967;DHT22;6548;49.996;8.238;2023-03-23T06:23:48;12.60;99.90
12967;DHT22;6548;49.996;8.238;2023-03-23T06:26:14;12.60;99.90
12967;DHT22;6548;49.996;8.238;2023-03-23T06:28:42;12.60;99.90
12967;DHT22;6548;49.996;8.238;2023-03-23T06:31:08;12.60;99.90
12967;DHT22;6548;49.996;8.238;2023-03-23T06:33:35;12.60;99.90
12967;DHT22;6548;49.996;8.238;2023-03-23T06:36:01;12.60;99.90
12967;DHT22;6548;49.996;8.238;2023-03-23T06:38:27;12.60;99.90
12967;DHT22;6548;49.996;8.238;2023-03-23T06:40:53;12.60;99.90
12967;DHT22;6548;49.996;8.238;2023-03-23T06:43:19;13.00;99.90
12967;DHT22;6548;49.996;8.238;2023-03-23T06:45:44;12.60;99.90
12967;DHT22;6548;49.996;8.238;2023-03-23T06:48:10;12.60;99.90
12967;DHT22;6548;49.996;8.238;2023-03-23T06:50:36;12.60;99.90
12967;DHT22;6548;49.996;8.238;2023-03-23T06:53:01;12.70;99.90
12967;DHT22;6548;49.996;8.238;2023-03-23T06:55:27;12.70;99.90
12967;DHT22;6548;49.996;8.238;2023-03-23T06:57:53;12.70;99.90
12967;DHT22;6548;49.996;8.238;2023-03-23T07:00:18;12.70;99.90
12967;DHT22;6548;49.996;8.238;2023-03-23T07:02:44;12.70;99.90
12967;DHT22;6548;49.996;8.238;2023-03-23T07:05:10;12.80;99.90
12967;DHT22;6548;49.996;8.238;2023-03-23T07:07:37;13.00;99.90
12967;DHT22;6548;49.996;8.238;2023-03-23T07:10:05;12.90;99.90
12967;DHT22;6548;49.996;8.238;2023-03-23T07:12:31;12.90;99.90
12967;DHT22;6548;49.996;8.238;2023-03-23T07:14:56;12.90;99.90
12967;DHT22;6548;49.996;8.238;2023-03-23T07:17:22;12.90;99.90
12967;DHT22;6548;49.996;8.238;2023-03-23T07:19:48;12.90;99.90
12967;DHT22;6548;49.996;8.238;2023-03-23T07:22:13;12.80;99.90
12967;DHT22;6548;49.996;8.238;2023-03-23T07:24:39;12.80;99.90
12967;DHT22;6548;49.996;8.238;2023-03-23T07:27:05;12.80;99.90
12967;DHT22;6548;49.996;8.238;2023-03-23T07:29:30;12.70;99.90
12967;DHT22;6548;49.996;8.238;2023-03-23T07:32:00;13.00;99.90
12967;DHT22;6548;49.996;8.238;2023-03-23T07:34:26;13.00;99.90
12967;DHT22;6548;49.996;8.238;2023-03-23T07:36:52;12.90;99.90
12967;DHT22;6548;49.996;8.238;2023-03-23T07:39:18;13.00;99.90
12967;DHT22;6548;49.996;8.238;2023-03-23T07:41:43;12.90;99.90
12967;DHT22;6548;49.996;8.238;2023-03-23T07:44:09;13.00;99.90
12967;DHT22;6548;49.996;8.238;2023-03-23T07:46:34;13.00;99.90
12967;DHT22;6548;49.996;8.238;2023-03-23T07:49:01;13.10;99.90
12967;DHT22;6548;49.996;8.238;2023-03-23T07:51:31;13.10;99.90
12967;DHT22;6548;49.996;8.238;2023-03-23T07:53:57;13.10;99.90
12967;DHT22;6548;49.996;8.238;2023-03-23T07:56:22;13.10;99.90
12967;DHT22;6548;49.996;8.238;2023-03-23T07:58:48;13.10;99.90
12967;DHT22;6548;49.996;8.238;2023-03-23T08:01:15;13.40;99.90
12967;DHT22;6548;49.996;8.238;2023-03-23T08:03:41;13.20;99.90
12967;DHT22;6548;49.996;8.238;2023-03-23T08:06:08;13.30;99.90
12967;DHT22;6548;49.996;8.238;2023-03-23T08:08:35;13.30;99.90
12967;DHT22;6548;49.996;8.238;2023-03-23T08:11:02;13.30;99.90
12967;DHT22;6548;49.996;8.238;2023-03-23T08:13:28;13.40;99.90
12967;DHT22;6548;49.996;8.238;2023-03-23T08:15:54;13.40;99.90
12967;DHT22;6548;49.996;8.238;2023-03-23T08:18:20;13.30;99.90
12967;DHT22;6548;49.996;8.238;2023-03-23T08:20:46;13.40;99.90
12967;DHT22;6548;49.996;8.238;2023-03-23T08:23:11;13.40;99.90
12967;DHT22;6548;49.996;8.238;2023-03-23T08:25:37;13.40;99.90
12967;DHT22;6548;49.996;8.238;2023-03-23T08:28:03;13.40;99.90
12967;DHT22;6548;49.996;8.238;2023-03-23T08:30:30;13.40;99.90
12967;DHT22;6548;49.996;8.238;2023-03-23T08:32:58;13.30;99.90
12967;DHT22;6548;49.996;8.238;2023-03-23T08:35:25;13.40;99.90
12967;DHT22;6548;49.996;8.238;2023-03-23T08:37:51;13.60;99.90
12967;DHT22;6548;49.996;8.238;2023-03-23T08:40:19;13.50;99.90
12967;DHT22;6548;49.996;8.238;2023-03-23T08:42:46;13.50;99.90
12967;DHT22;6548;49.996;8.238;2023-03-23T08:45:15;13.60;99.90
12967;DHT22;6548;49.996;8.238;2023-03-23T08:47:42;13.70;99.90
12967;DHT22;6548;49.996;8.238;2023-03-23T08:50:10;13.80;99.90
12967;DHT22;6548;49.996;8.238;2023-03-23T08:52:36;13.90;99.90
12967;DHT22;6548;49.996;8.238;2023-03-23T08:55:03;14.00;99.90
12967;DHT22;6548;49.996;8.238;2023-03-23T08:57:29;14.10;99.90
12967;DHT22;6548;49.996;8.238;2023-03-23T08:59:54;14.20;99.90
12967;DHT22;6548;49.996;8.238;2023-03-23T09:02:25;14.20;99.90
12967;DHT22;6548;49.996;8.238;2023-03-23T09:04:52;14.20;99.90
12967;DHT22;6548;49.996;8.238;2023-03-23T09:07:18;14.40;99.90
12967;DHT22;6548;49.996;8.238;2023-03-23T09:09:44;14.50;99.90
12967;DHT22;6548;49.996;8.238;2023-03-23T09:12:11;14.80;99.90
12967;DHT22;6548;49.996;8.238;2023-03-23T09:14:38;14.70;99.90
12967;DHT22;6548;49.996;8.238;2023-03-23T09:17:04;14.80;99.90
12967;DHT22;6548;49.996;8.238;2023-03-23T09:19:31;14.90;99.90
12967;DHT22;6548;49.996;8.238;2023-03-23T09:21:58;15.50;99.90
12967;DHT22;6548;49.996;8.238;2023-03-23T09:24:24;15.30;99.90
12967;DHT22;6548;49.996;8.238;2023-03-23T09:26:50;14.90;99.90
12967;DHT22;6548;49.996;8.238;2023-03-23T09:29:16;15.10;99.90
12967;DHT22;6548;49.996;8.238;2023-03-23T09:31:42;15.20;99.90
12967;DHT22;6548;49.996;8.238;2023-03-23T09:34:09;15.10;99.90
12967;DHT22;6548;49.996;8.238;2023-03-23T09:36:37;15.00;99.90
12967;DHT22;6548;49.996;8.238;2023-03-23T09:39:07;14.90;99.90
12967;DHT22;6548;49.996;8.238;2023-03-23T09:49:57;14.10;99.90
12967;DHT22;6548;49.996;8.238;2023-03-23T09:52:41;14.00;99.90
12967;DHT22;6548;49.996;8.238;2023-03-23T09:55:12;13.80;99.90
12967;DHT22;6548;49.996;8.238;2023-03-23T09:57:58;13.80;99.90
12967;DHT22;6548;49.996;8.238;2023-03-23T10:00:30;13.70;99.90
12967;DHT22;6548;49.996;8.238;2023-03-23T10:03:26;13.60;99.90
12967;DHT22;6548;49.996;8.238;2023-03-23T10:05:54;13.70;99.90
12967;DHT22;6548;49.996;8.238;2023-03-23T10:08:30;13.70;99.90
12967;DHT22;6548;49.996;8.238;2023-03-23T10:14:17;13.70;99.90
12967;DHT22;6548;49.996;8.238;2023-03-23T10:17:13;13.70;99.90
12967;DHT22;6548;49.996;8.238;2023-03-23T10:19:48;13.80;99.90
12967;DHT22;6548;49.996;8.238;2023-03-23T10:22:22;14.00;99.90
12967;DHT22;6548;49.996;8.238;2023-03-23T10:25:43;14.10;99.90
12967;DHT22;6548;49.996;8.238;2023-03-23T10:28:06;14.30;99.90
12967;DHT22;6548;49.996;8.238;2023-03-23T10:30:52;14.30;99.90
12967;DHT22;6548;49.996;8.238;2023-03-23T10:33:43;14.40;99.90
12967;DHT22;6548;49.996;8.238;2023-03-23T10:36:26;14.50;99.90
12967;DHT22;6548;49.996;8.238;2023-03-23T10:39:01;14.50;99.90
12967;DHT22;6548;49.996;8.238;2023-03-23T10:41:29;14.50;99.90
12967;DHT22;6548;49.996;8.238;2023-03-23T10:43:55;14.50;99.90
12967;DHT22;6548;49.996;8.238;2023-03-23T10:49:23;14.20;99.90
12967;DHT22;6548;49.996;8.238;2023-03-23T10:54:36;14.40;99.90
12967;DHT22;6548;49.996;8.238;2023-03-23T10:57:22;14.10;99.90
12967;DHT22;6548;49.996;8.238;2023-03-23T10:59:49;14.20;99.90
12967;DHT22;6548;49.996;8.238;2023-03-23T11:02:18;14.60;99.90
12967;DHT22;6548;49.996;8.238;2023-03-23T11:04:59;14.70;99.90
12967;DHT22;6548;49.996;8.238;2023-03-23T11:07:29;14.90;99.90
12967;DHT22;6548;49.996;8.238;2023-03-23T11:09:57;15.10;99.90
12967;DHT22;6548;49.996;8.238;2023-03-23T11:12:24;15.20;99.90
12967;DHT22;6548;49.996;8.238;2023-03-23T11:14:50;15.40;99.90
12967;DHT22;6548;49.996;8.238;2023-03-23T11:17:24;15.70;99.90
12967;DHT22;6548;49.996;8.238;2023-03-23T11:19:51;15.60;99.90
12967;DHT22;6548;49.996;8.238;2023-03-23T11:22:31;15.50;99.90
12967;DHT22;6548;49.996;8.238;2023-03-23T11:25:03;15.40;99.90
12967;DHT22;6548;49.996;8.238;2023-03-23T11:27:29;15.60;99.90
12967;DHT22;6548;49.996;8.238;2023-03-23T11:30:08;15.50;99.90
12967;DHT22;6548;49.996;8.238;2023-03-23T11:32:35;15.50;99.90
12967;DHT22;6548;49.996;8.238;2023-03-23T11:35:06;15.60;99.90
12967;DHT22;6548;49.996;8.238;2023-03-23T11:37:43;15.50;99.90
12967;DHT22;6548;49.996;8.238;2023-03-23T11:42:46;15.60;99.90
12967;DHT22;6548;49.996;8.238;2023-03-23T11:45:36;15.70;99.90
12967;DHT22;6548;49.996;8.238;2023-03-23T11:48:30;15.40;99.90
12967;DHT22;6548;49.996;8.238;2023-03-23T11:51:01;15.10;99.90
12967;DHT22;6548;49.996;8.238;2023-03-23T11:53:37;14.80;99.90
12967;DHT22;6548;49.996;8.238;2023-03-23T11:56:26;14.80;99.90
12967;DHT22;6548;49.996;8.238;2023-03-23T11:58:54;14.70;99.90
12967;DHT22;6548;49.996;8.238;2023-03-23T12:07:14;14.80;99.90
12967;DHT22;6548;49.996;8.238;2023-03-23T12:12:25;15.10;99.90
12967;DHT22;6548;49.996;8.238;2023-03-23T12:15:25;15.00;99.90
12967;DHT22;6548;49.996;8.238;2023-03-23T12:20:37;15.30;99.90
12967;DHT22;6548;49.996;8.238;2023-03-23T12:26:05;15.60;99.90
12967;DHT22;6548;49.996;8.238;2023-03-23T12:28:37;15.60;99.90
12967;DHT22;6548;49.996;8.238;2023-03-23T12:31:15;15.60;99.90
12967;DHT22;6548;49.996;8.238;2023-03-23T12:33:45;15.70;99.90
12967;DHT22;6548;49.996;8.238;2023-03-23T12:41:35;15.70;99.90
12967;DHT22;6548;49.996;8.238;2023-03-23T12:44:06;15.70;99.90
12967;DHT22;6548;49.996;8.238;2023-03-23T12:54:58;16.10;99.90
12967;DHT22;6548;49.996;8.238;2023-03-23T12:57:34;16.00;99.90
12967;DHT22;6548;49.996;8.238;2023-03-23T13:00:48;15.90;99.90
12967;DHT22;6548;49.996;8.238;2023-03-23T13:03:33;16.00;99.90
12967;DHT22;6548;49.996;8.238;2023-03-23T13:06:13;16.00;99.90
12967;DHT22;6548;49.996;8.238;2023-03-23T13:08:47;15.90;99.90
12967;DHT22;6548;49.996;8.238;2023-03-23T13:11:22;16.00;99.90
12967;DHT22;6548;49.996;8.238;2023-03-23T13:13:56;16.00;99.90
12967;DHT22;6548;49.996;8.238;2023-03-23T13:16:43;16.10;99.90
12967;DHT22;6548;49.996;8.238;2023-03-23T13:19:16;16.00;99.90
12967;DHT22;6548;49.996;8.238;2023-03-23T13:24:17;15.80;99.90
12967;DHT22;6548;49.996;8.238;2023-03-23T13:26:44;15.80;99.90
12967;DHT22;6548;49.996;8.238;2023-03-23T13:29:20;15.70;99.90
12967;DHT22;6548;49.996;8.238;2023-03-23T13:31:47;15.70;99.90
12967;DHT22;6548;49.996;8.238;2023-03-23T13:34:26;15.80;99.90
12967;DHT22;6548;49.996;8.238;2023-03-23T13:39:48;15.40;99.90
12967;DHT22;6548;49.996;8.238;2023-03-23T13:49:51;14.90;99.90
12967;DHT22;6548;49.996;8.238;2023-03-23T14:10:56;15.40;99.90
12967;DHT22;6548;49.996;8.238;2023-03-23T14:16:27;15.60;99.90
12967;DHT22;6548;49.996;8.238;2023-03-23T14:19:00;15.40;99.90
12967;DHT22;6548;49.996;8.238;2023-03-23T14:21:38;15.20;99.90
12967;DHT22;6548;49.996;8.238;2023-03-23T14:24:32;15.20;99.90
12967;DHT22;6548;49.996;8.238;2023-03-23T14:27:19;15.10;99.90
12967;DHT22;6548;49.996;8.238;2023-03-23T14:29:46;15.10;99.90
12967;DHT22;6548;49.996;8.238;2023-03-23T14:32:23;15.20;99.90
12967;DHT22;6548;49.996;8.238;2023-03-23T14:34:52;15.30;99.90
12967;DHT22;6548;49.996;8.238;2023-03-23T14:37:20;15.50;99.90
12967;DHT22;6548;49.996;8.238;2023-03-23T14:39:53;15.40;99.90
12967;DHT22;6548;49.996;8.238;2023-03-23T14:42:29;15.40;99.90
12967;DHT22;6548;49.996;8.238;2023-03-23T14:44:55;15.20;99.90
12967;DHT22;6548;49.996;8.238;2023-03-23T14:47:31;15.20;99.90
12967;DHT22;6548;49.996;8.238;2023-03-23T14:49:59;15.10;99.90
12967;DHT22;6548;49.996;8.238;2023-03-23T14:52:33;15.00;99.90
12967;DHT22;6548;49.996;8.238;2023-03-23T14:55:14;14.90;99.90
12967;DHT22;6548;49.996;8.238;2023-03-23T14:57:41;14.90;99.90
12967;DHT22;6548;49.996;8.238;2023-03-23T15:00:15;14.90;99.90
12967;DHT22;6548;49.996;8.238;2023-03-23T15:02:45;15.00;99.90
12967;DHT22;6548;49.996;8.238;2023-03-23T15:05:15;15.00;99.90
12967;DHT22;6548;49.996;8.238;2023-03-23T15:07:44;15.20;99.90
12967;DHT22;6548;49.996;8.238;2023-03-23T15:10:17;16.00;99.90
12967;DHT22;6548;49.996;8.238;2023-03-23T15:12:45;15.70;99.90
12967;DHT22;6548;49.996;8.238;2023-03-23T15:15:24;16.00;99.90
12967;DHT22;6548;49.996;8.238;2023-03-23T15:17:50;15.20;99.90
12967;DHT22;6548;49.996;8.238;2023-03-23T15:22:48;15.20;99.90
12967;DHT22;6548;49.996;8.238;2023-03-23T15:25:31;15.20;99.90
12967;DHT22;6548;49.996;8.238;2023-03-23T15:28:06;15.30;99.90
12967;DHT22;6548;49.996;8.238;2023-03-23T15:30:35;15.20;99.90
12967;DHT22;6548;49.996;8.238;2023-03-23T15:33:10;16.40;99.90
12967;DHT22;6548;49.996;8.238;2023-03-23T15:35:39;15.10;99.90
12967;DHT22;6548;49.996;8.238;2023-03-23T15:38:17;15.60;99.90
12967;DHT22;6548;49.996;8.238;2023-03-23T15:40:43;15.10;99.90
12967;DHT22;6548;49.996;8.238;2023-03-23T15:43:25;15.10;99.90
12967;DHT22;6548;49.996;8.238;2023-03-23T15:46:18;15.10;99.90
12967;DHT22;6548;49.996;8.238;2023-03-23T15:51:27;15.10;99.90
12967;DHT22;6548;49.996;8.238;2023-03-23T15:53:54;15.10;99.90
12967;DHT22;6548;49.996;8.238;2023-03-23T15:56:21;15.10;99.90
12967;DHT22;6548;49.996;8.238;2023-03-23T15:58:47;14.90;99.90
12967;DHT22;6548;49.996;8.238;2023-03-23T16:01:17;14.80;99.90
12967;DHT22;6548;49.996;8.238;2023-03-23T16:03:49;14.60;99.90
12967;DHT22;6548;49.996;8.238;2023-03-23T16:06:17;14.60;99.90
12967;DHT22;6548;49.996;8.238;2023-03-23T16:08:43;14.50;99.90
12967;DHT22;6548;49.996;8.238;2023-03-23T16:11:10;15.20;99.90
12967;DHT22;6548;49.996;8.238;2023-03-23T16:13:36;14.40;99.90
12967;DHT22;6548;49.996;8.238;2023-03-23T16:16:02;14.20;99.90
12967;DHT22;6548;49.996;8.238;2023-03-23T16:18:29;14.20;99.90
12967;DHT22;6548;49.996;8.238;2023-03-23T16:20:56;14.20;99.90
12967;DHT22;6548;49.996;8.238;2023-03-23T16:23:21;14.10;99.90
12967;DHT22;6548;49.996;8.238;2023-03-23T16:25:48;14.10;99.90
12967;DHT22;6548;49.996;8.238;2023-03-23T16:28:14;14.80;99.90
12967;DHT22;6548;49.996;8.238;2023-03-23T16:30:41;14.40;99.90
12967;DHT22;6548;49.996;8.238;2023-03-23T16:33:07;14.00;99.90
12967;DHT22;6548;49.996;8.238;2023-03-23T16:35:34;14.00;99.90
12967;DHT22;6548;49.996;8.238;2023-03-23T16:37:59;14.00;99.90
12967;DHT22;6548;49.996;8.238;2023-03-23T16:40:25;14.00;99.90
12967;DHT22;6548;49.996;8.238;2023-03-23T16:42:52;14.00;99.90
12967;DHT22;6548;49.996;8.238;2023-03-23T16:45:18;14.00;99.90
12967;DHT22;6548;49.996;8.238;2023-03-23T16:47:44;13.90;99.90
12967;DHT22;6548;49.996;8.238;2023-03-23T16:50:12;13.90;99.90
12967;DHT22;6548;49.996;8.238;2023-03-23T16:52:40;13.90;99.90
12967;DHT22;6548;49.996;8.238;2023-03-23T16:55:07;13.80;99.90
12967;DHT22;6548;49.996;8.238;2023-03-23T16:57:33;13.80;99.90
12967;DHT22;6548;49.996;8.238;2023-03-23T17:00:03;13.70;99.90
12967;DHT22;6548;49.996;8.238;2023-03-23T17:02:30;13.70;99.90
12967;DHT22;6548;49.996;8.238;2023-03-23T17:04:56;13.70;99.90
12967;DHT22;6548;49.996;8.238;2023-03-23T17:07:23;13.70;99.90
12967;DHT22;6548;49.996;8.238;2023-03-23T17:09:48;14.20;99.90
12967;DHT22;6548;49.996;8.238;2023-03-23T17:12:14;13.60;99.90
12967;DHT22;6548;49.996;8.238;2023-03-23T17:14:39;13.60;99.90
12967;DHT22;6548;49.996;8.238;2023-03-23T17:17:05;13.60;99.90
12967;DHT22;6548;49.996;8.238;2023-03-23T17:19:31;13.70;99.90
12967;DHT22;6548;49.996;8.238;2023-03-23T17:21:57;13.70;99.90
12967;DHT22;6548;49.996;8.238;2023-03-23T17:24:22;13.70;99.90
12967;DHT22;6548;49.996;8.238;2023-03-23T17:26:48;13.70;99.90
12967;DHT22;6548;49.996;8.238;2023-03-23T17:29:13;13.70;99.90
12967;DHT22;6548;49.996;8.238;2023-03-23T17:31:39;13.60;99.90
12967;DHT22;6548;49.996;8.238;2023-03-23T17:34:06;13.60;99.90
12967;DHT22;6548;49.996;8.238;2023-03-23T17:36:31;13.50;99.90
12967;DHT22;6548;49.996;8.238;2023-03-23T17:38:57;13.50;99.90
12967;DHT22;6548;49.996;8.238;2023-03-23T17:41:22;13.50;99.90
12967;DHT22;6548;49.996;8.238;2023-03-23T17:43:48;13.40;99.90
12967;DHT22;6548;49.996;8.238;2023-03-23T17:46:14;13.40;99.90
12967;DHT22;6548;49.996;8.238;2023-03-23T17:48:40;13.30;99.90